Terminal Aerodrome Forecast
Issued by NWS

Home | Current Version | Previous Version | Text Only | Print | Product List | Glossary On
Versions: 1 2 3 4 5 6 7 8 9 10 11 12 13 14 15
000
FTUS46 KHNX 022321
TAFMCE
TAF
KMCE 022321Z 0300/0324 17008KT P6SM -RA VCTS SCT045CB BKN060
     FM030400 VRB03KT P6SM SCT040
     FM031000 VRB03KT 4SM BR SCT040
     FM031900 32010KT P6SM FEW050=

USA.gov is the U.S. government's official web portal to all federal, state and local government web resources and services.